sensor_id;sensor_type;location;lat;lon;timestamp;P1;durP1;ratioP1;P2;durP2;ratioP2
4837;SDS011;2433;48.768;9.154;2023-02-26T00:01:46;4.10;;;1.65;;
4837;SDS011;2433;48.768;9.154;2023-02-26T00:04:14;1.65;;;1.52;;
4837;SDS011;2433;48.768;9.154;2023-02-26T00:06:40;5.03;;;1.93;;
4837;SDS011;2433;48.768;9.154;2023-02-26T00:09:19;2.58;;;2.38;;
4837;SDS011;2433;48.768;9.154;2023-02-26T00:11:46;6.43;;;2.60;;
4837;SDS011;2433;48.768;9.154;2023-02-26T00:14:12;2.33;;;1.67;;
4837;SDS011;2433;48.768;9.154;2023-02-26T00:16:39;1.90;;;1.42;;
4837;SDS011;2433;48.768;9.154;2023-02-26T00:19:06;4.15;;;2.83;;
4837;SDS011;2433;48.768;9.154;2023-02-26T00:21:33;1.58;;;1.48;;
4837;SDS011;2433;48.768;9.154;2023-02-26T00:24:01;1.60;;;1.30;;
4837;SDS011;2433;48.768;9.154;2023-02-26T00:26:28;2.97;;;2.00;;
4837;SDS011;2433;48.768;9.154;2023-02-26T00:28:55;3.95;;;1.85;;
4837;SDS011;2433;48.768;9.154;2023-02-26T00:31:21;1.77;;;1.67;;
4837;SDS011;2433;48.768;9.154;2023-02-26T00:33:50;2.67;;;1.13;;
4837;SDS011;2433;48.768;9.154;2023-02-26T00:36:19;1.70;;;1.50;;
4837;SDS011;2433;48.768;9.154;2023-02-26T00:41:38;2.35;;;1.40;;
4837;SDS011;2433;48.768;9.154;2023-02-26T00:44:05;2.87;;;1.53;;
4837;SDS011;2433;48.768;9.154;2023-02-26T00:46:44;2.78;;;1.85;;
4837;SDS011;2433;48.768;9.154;2023-02-26T00:52:01;2.00;;;1.42;;
4837;SDS011;2433;48.768;9.154;2023-02-26T00:54:29;1.95;;;1.67;;
4837;SDS011;2433;48.768;9.154;2023-02-26T00:56:55;1.48;;;1.38;;
4837;SDS011;2433;48.768;9.154;2023-02-26T00:59:22;2.10;;;1.52;;
4837;SDS011;2433;48.768;9.154;2023-02-26T01:01:48;3.25;;;1.85;;
4837;SDS011;2433;48.768;9.154;2023-02-26T01:04:15;1.90;;;1.80;;
4837;SDS011;2433;48.768;9.154;2023-02-26T01:06:44;1.27;;;1.20;;
4837;SDS011;2433;48.768;9.154;2023-02-26T01:09:15;2.15;;;1.70;;
4837;SDS011;2433;48.768;9.154;2023-02-26T01:11:41;1.33;;;1.10;;
4837;SDS011;2433;48.768;9.154;2023-02-26T01:14:07;1.30;;;1.20;;
4837;SDS011;2433;48.768;9.154;2023-02-26T01:16:37;3.70;;;1.50;;
4837;SDS011;2433;48.768;9.154;2023-02-26T01:19:13;1.90;;;1.60;;
4837;SDS011;2433;48.768;9.154;2023-02-26T01:21:46;1.75;;;1.40;;
4837;SDS011;2433;48.768;9.154;2023-02-26T01:24:14;2.08;;;1.70;;
4837;SDS011;2433;48.768;9.154;2023-02-26T01:26:41;1.40;;;1.30;;
4837;SDS011;2433;48.768;9.154;2023-02-26T01:29:06;1.33;;;1.23;;
4837;SDS011;2433;48.768;9.154;2023-02-26T01:31:45;5.90;;;1.53;;
4837;SDS011;2433;48.768;9.154;2023-02-26T01:34:26;1.30;;;1.10;;
4837;SDS011;2433;48.768;9.154;2023-02-26T01:37:02;3.85;;;2.22;;
4837;SDS011;2433;48.768;9.154;2023-02-26T01:39:38;3.33;;;1.50;;
4837;SDS011;2433;48.768;9.154;2023-02-26T01:42:12;3.10;;;1.58;;
4837;SDS011;2433;48.768;9.154;2023-02-26T01:50:22;2.05;;;1.83;;
4837;SDS011;2433;48.768;9.154;2023-02-26T01:55:43;1.58;;;1.45;;
4837;SDS011;2433;48.768;9.154;2023-02-26T01:58:10;3.70;;;1.40;;
4837;SDS011;2433;48.768;9.154;2023-02-26T02:00:36;1.80;;;1.42;;
4837;SDS011;2433;48.768;9.154;2023-02-26T02:03:02;4.00;;;2.43;;
4837;SDS011;2433;48.768;9.154;2023-02-26T02:08:14;1.50;;;1.40;;
4837;SDS011;2433;48.768;9.154;2023-02-26T02:10:44;3.38;;;1.60;;
4837;SDS011;2433;48.768;9.154;2023-02-26T02:13:24;1.75;;;1.65;;
4837;SDS011;2433;48.768;9.154;2023-02-26T02:16:11;2.92;;;2.17;;
4837;SDS011;2433;48.768;9.154;2023-02-26T02:18:46;6.63;;;2.13;;
4837;SDS011;2433;48.768;9.154;2023-02-26T02:26:53;2.13;;;1.90;;
4837;SDS011;2433;48.768;9.154;2023-02-26T02:30:15;1.50;;;1.40;;
4837;SDS011;2433;48.768;9.154;2023-02-26T02:32:33;2.20;;;1.50;;
4837;SDS011;2433;48.768;9.154;2023-02-26T02:35:21;3.50;;;1.90;;
4837;SDS011;2433;48.768;9.154;2023-02-26T02:37:50;1.48;;;1.30;;
4837;SDS011;2433;48.768;9.154;2023-02-26T02:40:24;2.47;;;1.40;;
4837;SDS011;2433;48.768;9.154;2023-02-26T02:42:57;2.20;;;1.95;;
4837;SDS011;2433;48.768;9.154;2023-02-26T02:45:30;3.30;;;1.58;;
4837;SDS011;2433;48.768;9.154;2023-02-26T02:48:02;7.22;;;1.90;;
4837;SDS011;2433;48.768;9.154;2023-02-26T02:50:43;1.63;;;1.50;;
4837;SDS011;2433;48.768;9.154;2023-02-26T02:55:57;1.85;;;1.42;;
4837;SDS011;2433;48.768;9.154;2023-02-26T02:58:27;1.42;;;1.10;;
4837;SDS011;2433;48.768;9.154;2023-02-26T03:00:56;3.08;;;1.55;;
4837;SDS011;2433;48.768;9.154;2023-02-26T03:03:27;2.33;;;1.40;;
4837;SDS011;2433;48.768;9.154;2023-02-26T03:05:54;3.95;;;1.88;;
4837;SDS011;2433;48.768;9.154;2023-02-26T03:08:23;3.63;;;1.73;;
4837;SDS011;2433;48.768;9.154;2023-02-26T03:10:55;2.63;;;1.27;;
4837;SDS011;2433;48.768;9.154;2023-02-26T03:13:22;4.25;;;1.48;;
4837;SDS011;2433;48.768;9.154;2023-02-26T03:15:59;3.10;;;1.90;;
4837;SDS011;2433;48.768;9.154;2023-02-26T03:21:19;1.55;;;1.45;;
4837;SDS011;2433;48.768;9.154;2023-02-26T03:23:51;2.50;;;1.67;;
4837;SDS011;2433;48.768;9.154;2023-02-26T03:26:30;1.13;;;0.93;;
4837;SDS011;2433;48.768;9.154;2023-02-26T03:29:36;2.45;;;1.98;;
4837;SDS011;2433;48.768;9.154;2023-02-26T03:31:57;1.48;;;1.33;;
4837;SDS011;2433;48.768;9.154;2023-02-26T03:37:04;1.65;;;1.23;;
4837;SDS011;2433;48.768;9.154;2023-02-26T03:39:37;3.97;;;1.60;;
4837;SDS011;2433;48.768;9.154;2023-02-26T03:47:23;2.03;;;1.45;;
4837;SDS011;2433;48.768;9.154;2023-02-26T03:49:58;2.33;;;1.50;;
4837;SDS011;2433;48.768;9.154;2023-02-26T03:52:31;3.05;;;2.53;;
4837;SDS011;2433;48.768;9.154;2023-02-26T03:55:40;4.15;;;2.10;;
4837;SDS011;2433;48.768;9.154;2023-02-26T03:58:23;3.47;;;2.15;;
4837;SDS011;2433;48.768;9.154;2023-02-26T04:01:07;1.30;;;1.20;;
4837;SDS011;2433;48.768;9.154;2023-02-26T04:03:41;2.47;;;1.88;;
4837;SDS011;2433;48.768;9.154;2023-02-26T04:06:10;2.05;;;1.40;;
4837;SDS011;2433;48.768;9.154;2023-02-26T04:08:37;2.38;;;1.45;;
4837;SDS011;2433;48.768;9.154;2023-02-26T04:11:07;3.95;;;1.80;;
4837;SDS011;2433;48.768;9.154;2023-02-26T04:13:35;3.90;;;1.48;;
4837;SDS011;2433;48.768;9.154;2023-02-26T04:16:01;1.30;;;1.20;;
4837;SDS011;2433;48.768;9.154;2023-02-26T04:18:27;2.10;;;1.33;;
4837;SDS011;2433;48.768;9.154;2023-02-26T04:20:54;3.63;;;1.80;;
4837;SDS011;2433;48.768;9.154;2023-02-26T04:23:19;2.23;;;1.73;;
4837;SDS011;2433;48.768;9.154;2023-02-26T04:25:45;2.40;;;2.13;;
4837;SDS011;2433;48.768;9.154;2023-02-26T04:28:13;2.83;;;1.45;;
4837;SDS011;2433;48.768;9.154;2023-02-26T04:30:39;4.75;;;1.90;;
4837;SDS011;2433;48.768;9.154;2023-02-26T04:33:07;2.65;;;1.80;;
4837;SDS011;2433;48.768;9.154;2023-02-26T04:35:33;1.60;;;1.50;;
4837;SDS011;2433;48.768;9.154;2023-02-26T04:38:00;1.37;;;1.27;;
4837;SDS011;2433;48.768;9.154;2023-02-26T04:40:26;2.65;;;1.90;;
4837;SDS011;2433;48.768;9.154;2023-02-26T04:42:52;2.63;;;1.63;;
4837;SDS011;2433;48.768;9.154;2023-02-26T04:45:22;2.67;;;2.47;;
4837;SDS011;2433;48.768;9.154;2023-02-26T04:47:48;2.40;;;1.70;;
4837;SDS011;2433;48.768;9.154;2023-02-26T04:50:13;1.13;;;0.93;;
4837;SDS011;2433;48.768;9.154;2023-02-26T04:52:40;2.22;;;2.00;;
4837;SDS011;2433;48.768;9.154;2023-02-26T04:55:06;1.77;;;1.63;;
4837;SDS011;2433;48.768;9.154;2023-02-26T04:57:33;2.00;;;1.80;;
4837;SDS011;2433;48.768;9.154;2023-02-26T05:00:00;3.03;;;1.73;;
4837;SDS011;2433;48.768;9.154;2023-02-26T05:02:30;3.17;;;2.20;;
4837;SDS011;2433;48.768;9.154;2023-02-26T05:04:56;1.70;;;1.30;;
4837;SDS011;2433;48.768;9.154;2023-02-26T05:07:22;4.50;;;1.87;;
4837;SDS011;2433;48.768;9.154;2023-02-26T05:09:48;9.10;;;1.70;;
4837;SDS011;2433;48.768;9.154;2023-02-26T05:12:14;2.30;;;1.47;;
4837;SDS011;2433;48.768;9.154;2023-02-26T05:14:40;2.50;;;1.70;;
4837;SDS011;2433;48.768;9.154;2023-02-26T05:17:05;3.97;;;2.63;;
4837;SDS011;2433;48.768;9.154;2023-02-26T05:19:31;5.03;;;2.90;;
4837;SDS011;2433;48.768;9.154;2023-02-26T05:21:57;2.90;;;2.00;;
4837;SDS011;2433;48.768;9.154;2023-02-26T05:24:22;1.40;;;1.30;;
4837;SDS011;2433;48.768;9.154;2023-02-26T05:26:48;3.27;;;1.73;;
4837;SDS011;2433;48.768;9.154;2023-02-26T05:29:13;2.13;;;1.70;;
4837;SDS011;2433;48.768;9.154;2023-02-26T05:31:39;2.20;;;2.00;;
4837;SDS011;2433;48.768;9.154;2023-02-26T05:34:04;2.73;;;1.50;;
4837;SDS011;2433;48.768;9.154;2023-02-26T05:36:30;1.93;;;0.87;;
4837;SDS011;2433;48.768;9.154;2023-02-26T05:38:56;7.30;;;2.60;;
4837;SDS011;2433;48.768;9.154;2023-02-26T05:41:22;5.50;;;1.80;;
4837;SDS011;2433;48.768;9.154;2023-02-26T05:43:48;1.67;;;1.37;;
4837;SDS011;2433;48.768;9.154;2023-02-26T05:46:15;1.95;;;1.50;;
4837;SDS011;2433;48.768;9.154;2023-02-26T05:48:41;1.30;;;1.20;;
4837;SDS011;2433;48.768;9.154;2023-02-26T05:51:06;3.80;;;1.57;;
4837;SDS011;2433;48.768;9.154;2023-02-26T05:53:34;2.08;;;1.48;;
4837;SDS011;2433;48.768;9.154;2023-02-26T05:56:00;3.33;;;2.00;;
4837;SDS011;2433;48.768;9.154;2023-02-26T05:58:25;2.03;;;1.93;;
4837;SDS011;2433;48.768;9.154;2023-02-26T06:00:51;1.77;;;1.17;;
4837;SDS011;2433;48.768;9.154;2023-02-26T06:03:17;2.83;;;1.43;;
4837;SDS011;2433;48.768;9.154;2023-02-26T06:05:42;2.80;;;1.70;;
4837;SDS011;2433;48.768;9.154;2023-02-26T06:08:08;2.73;;;1.87;;
4837;SDS011;2433;48.768;9.154;2023-02-26T06:10:36;2.10;;;1.83;;
4837;SDS011;2433;48.768;9.154;2023-02-26T06:13:01;6.73;;;2.37;;
4837;SDS011;2433;48.768;9.154;2023-02-26T06:15:28;8.53;;;2.40;;
4837;SDS011;2433;48.768;9.154;2023-02-26T06:17:54;2.35;;;1.67;;
4837;SDS011;2433;48.768;9.154;2023-02-26T06:20:19;2.27;;;2.00;;
4837;SDS011;2433;48.768;9.154;2023-02-26T06:22:45;2.20;;;2.00;;
4837;SDS011;2433;48.768;9.154;2023-02-26T06:25:11;3.97;;;2.23;;
4837;SDS011;2433;48.768;9.154;2023-02-26T06:27:36;2.40;;;2.20;;
4837;SDS011;2433;48.768;9.154;2023-02-26T06:30:02;2.90;;;2.30;;
4837;SDS011;2433;48.768;9.154;2023-02-26T06:32:28;4.40;;;2.65;;
4837;SDS011;2433;48.768;9.154;2023-02-26T06:34:55;2.03;;;1.80;;
4837;SDS011;2433;48.768;9.154;2023-02-26T06:37:21;2.30;;;1.90;;
4837;SDS011;2433;48.768;9.154;2023-02-26T06:39:46;4.37;;;2.33;;
4837;SDS011;2433;48.768;9.154;2023-02-26T06:42:12;3.13;;;2.60;;
4837;SDS011;2433;48.768;9.154;2023-02-26T06:44:38;4.67;;;2.30;;
4837;SDS011;2433;48.768;9.154;2023-02-26T06:47:03;1.87;;;1.70;;
4837;SDS011;2433;48.768;9.154;2023-02-26T06:49:29;4.67;;;1.77;;
4837;SDS011;2433;48.768;9.154;2023-02-26T06:51:56;2.60;;;2.20;;
4837;SDS011;2433;48.768;9.154;2023-02-26T06:54:22;3.08;;;2.40;;
4837;SDS011;2433;48.768;9.154;2023-02-26T06:56:47;6.87;;;2.53;;
4837;SDS011;2433;48.768;9.154;2023-02-26T06:59:13;4.73;;;2.63;;
4837;SDS011;2433;48.768;9.154;2023-02-26T07:01:39;2.35;;;1.95;;
4837;SDS011;2433;48.768;9.154;2023-02-26T07:04:05;1.43;;;1.33;;
4837;SDS011;2433;48.768;9.154;2023-02-26T07:06:31;24.73;;;2.37;;
4837;SDS011;2433;48.768;9.154;2023-02-26T07:08:56;5.47;;;2.30;;
4837;SDS011;2433;48.768;9.154;2023-02-26T07:11:22;4.00;;;2.17;;
4837;SDS011;2433;48.768;9.154;2023-02-26T07:13:47;1.80;;;1.60;;
4837;SDS011;2433;48.768;9.154;2023-02-26T07:16:13;5.97;;;2.60;;
4837;SDS011;2433;48.768;9.154;2023-02-26T07:18:38;2.63;;;2.43;;
4837;SDS011;2433;48.768;9.154;2023-02-26T07:21:04;7.43;;;3.00;;
4837;SDS011;2433;48.768;9.154;2023-02-26T07:23:29;5.23;;;2.80;;
4837;SDS011;2433;48.768;9.154;2023-02-26T07:25:55;2.87;;;2.60;;
4837;SDS011;2433;48.768;9.154;2023-02-26T07:28:22;1.80;;;1.70;;
4837;SDS011;2433;48.768;9.154;2023-02-26T07:30:48;3.30;;;2.10;;
4837;SDS011;2433;48.768;9.154;2023-02-26T07:33:14;3.53;;;2.10;;
4837;SDS011;2433;48.768;9.154;2023-02-26T07:35:40;3.07;;;2.77;;
4837;SDS011;2433;48.768;9.154;2023-02-26T07:38:06;3.35;;;2.28;;
4837;SDS011;2433;48.768;9.154;2023-02-26T07:40:31;3.23;;;1.67;;
4837;SDS011;2433;48.768;9.154;2023-02-26T07:42:57;3.70;;;2.45;;
4837;SDS011;2433;48.768;9.154;2023-02-26T07:45:23;4.13;;;1.83;;
4837;SDS011;2433;48.768;9.154;2023-02-26T07:47:52;1.73;;;1.63;;
4837;SDS011;2433;48.768;9.154;2023-02-26T07:50:18;1.50;;;1.40;;
4837;SDS011;2433;48.768;9.154;2023-02-26T07:52:45;3.40;;;1.55;;
4837;SDS011;2433;48.768;9.154;2023-02-26T07:55:11;3.75;;;2.08;;
4837;SDS011;2433;48.768;9.154;2023-02-26T07:57:37;5.05;;;1.73;;
4837;SDS011;2433;48.768;9.154;2023-02-26T08:00:03;1.90;;;1.43;;
4837;SDS011;2433;48.768;9.154;2023-02-26T08:02:40;5.68;;;2.05;;
4837;SDS011;2433;48.768;9.154;2023-02-26T08:05:05;6.03;;;2.80;;
4837;SDS011;2433;48.768;9.154;2023-02-26T08:07:31;2.43;;;1.70;;
4837;SDS011;2433;48.768;9.154;2023-02-26T08:09:57;1.40;;;1.23;;
4837;SDS011;2433;48.768;9.154;2023-02-26T08:12:23;2.67;;;1.90;;
4837;SDS011;2433;48.768;9.154;2023-02-26T08:14:48;1.33;;;1.23;;
4837;SDS011;2433;48.768;9.154;2023-02-26T08:17:14;2.77;;;2.20;;
4837;SDS011;2433;48.768;9.154;2023-02-26T08:19:40;1.20;;;1.10;;
4837;SDS011;2433;48.768;9.154;2023-02-26T08:22:05;2.30;;;1.80;;
4837;SDS011;2433;48.768;9.154;2023-02-26T08:24:31;1.97;;;1.07;;
4837;SDS011;2433;48.768;9.154;2023-02-26T08:26:57;3.13;;;2.10;;
4837;SDS011;2433;48.768;9.154;2023-02-26T08:29:22;2.60;;;2.00;;
4837;SDS011;2433;48.768;9.154;2023-02-26T08:31:48;3.93;;;1.93;;
4837;SDS011;2433;48.768;9.154;2023-02-26T08:34:13;1.77;;;1.40;;
4837;SDS011;2433;48.768;9.154;2023-02-26T08:36:39;4.30;;;2.33;;
4837;SDS011;2433;48.768;9.154;2023-02-26T08:39:06;2.50;;;1.90;;
4837;SDS011;2433;48.768;9.154;2023-02-26T08:41:32;1.98;;;1.80;;
4837;SDS011;2433;48.768;9.154;2023-02-26T08:43:58;2.40;;;1.97;;
4837;SDS011;2433;48.768;9.154;2023-02-26T08:46:24;5.72;;;2.45;;
4837;SDS011;2433;48.768;9.154;2023-02-26T08:48:49;2.97;;;2.47;;
4837;SDS011;2433;48.768;9.154;2023-02-26T08:51:15;2.53;;;2.27;;
4837;SDS011;2433;48.768;9.154;2023-02-26T08:53:41;3.10;;;2.03;;
4837;SDS011;2433;48.768;9.154;2023-02-26T08:56:09;3.08;;;1.20;;
4837;SDS011;2433;48.768;9.154;2023-02-26T08:58:35;5.17;;;1.60;;
4837;SDS011;2433;48.768;9.154;2023-02-26T09:01:00;2.60;;;2.10;;
4837;SDS011;2433;48.768;9.154;2023-02-26T09:03:26;2.30;;;1.73;;
4837;SDS011;2433;48.768;9.154;2023-02-26T09:05:51;3.97;;;1.87;;
4837;SDS011;2433;48.768;9.154;2023-02-26T09:08:17;2.70;;;2.50;;
4837;SDS011;2433;48.768;9.154;2023-02-26T09:10:44;1.98;;;1.10;;
4837;SDS011;2433;48.768;9.154;2023-02-26T09:13:10;3.43;;;1.63;;
4837;SDS011;2433;48.768;9.154;2023-02-26T09:15:36;2.30;;;1.20;;
4837;SDS011;2433;48.768;9.154;2023-02-26T09:18:01;4.03;;;2.13;;
4837;SDS011;2433;48.768;9.154;2023-02-26T09:20:27;2.60;;;2.07;;
4837;SDS011;2433;48.768;9.154;2023-02-26T09:22:53;1.73;;;1.63;;
4837;SDS011;2433;48.768;9.154;2023-02-26T09:25:18;2.47;;;1.70;;
4837;SDS011;2433;48.768;9.154;2023-02-26T09:27:44;1.57;;;1.40;;
4837;SDS011;2433;48.768;9.154;2023-02-26T09:30:10;2.30;;;2.10;;
4837;SDS011;2433;48.768;9.154;2023-02-26T09:32:37;1.42;;;1.25;;
4837;SDS011;2433;48.768;9.154;2023-02-26T09:35:05;3.50;;;1.80;;
4837;SDS011;2433;48.768;9.154;2023-02-26T09:37:31;2.00;;;1.80;;
4837;SDS011;2433;48.768;9.154;2023-02-26T09:39:56;2.07;;;1.87;;
4837;SDS011;2433;48.768;9.154;2023-02-26T09:42:28;2.20;;;1.70;;
4837;SDS011;2433;48.768;9.154;2023-02-26T09:45:01;2.50;;;1.65;;
4837;SDS011;2433;48.768;9.154;2023-02-26T09:47:29;2.90;;;2.00;;
4837;SDS011;2433;48.768;9.154;2023-02-26T09:52:36;2.85;;;2.53;;
4837;SDS011;2433;48.768;9.154;2023-02-26T09:57:43;3.38;;;2.40;;
4837;SDS011;2433;48.768;9.154;2023-02-26T10:00:16;2.50;;;2.30;;
4837;SDS011;2433;48.768;9.154;2023-02-26T10:03:14;3.15;;;2.53;;
4837;SDS011;2433;48.768;9.154;2023-02-26T10:06:05;2.40;;;1.30;;
4837;SDS011;2433;48.768;9.154;2023-02-26T10:08:46;1.67;;;1.40;;
4837;SDS011;2433;48.768;9.154;2023-02-26T10:11:20;2.63;;;2.25;;
4837;SDS011;2433;48.768;9.154;2023-02-26T10:13:53;3.78;;;1.88;;
4837;SDS011;2433;48.768;9.154;2023-02-26T10:16:25;2.55;;;2.35;;
4837;SDS011;2433;48.768;9.154;2023-02-26T10:18:54;3.65;;;2.15;;
4837;SDS011;2433;48.768;9.154;2023-02-26T10:21:28;2.50;;;2.30;;
4837;SDS011;2433;48.768;9.154;2023-02-26T10:23:57;0.98;;;0.98;;
4837;SDS011;2433;48.768;9.154;2023-02-26T10:26:27;2.95;;;2.10;;
4837;SDS011;2433;48.768;9.154;2023-02-26T10:29:16;4.47;;;2.60;;
4837;SDS011;2433;48.768;9.154;2023-02-26T10:37:09;2.53;;;1.13;;
4837;SDS011;2433;48.768;9.154;2023-02-26T10:39:46;2.30;;;1.70;;
4837;SDS011;2433;48.768;9.154;2023-02-26T10:42:16;2.10;;;1.13;;
4837;SDS011;2433;48.768;9.154;2023-02-26T10:50:09;1.42;;;1.33;;
4837;SDS011;2433;48.768;9.154;2023-02-26T10:52:37;2.38;;;1.80;;
4837;SDS011;2433;48.768;9.154;2023-02-26T11:00:26;4.38;;;1.70;;
4837;SDS011;2433;48.768;9.154;2023-02-26T11:02:52;2.67;;;2.47;;
4837;SDS011;2433;48.768;9.154;2023-02-26T11:05:20;1.80;;;1.70;;
4837;SDS011;2433;48.768;9.154;2023-02-26T11:07:53;2.70;;;1.33;;
4837;SDS011;2433;48.768;9.154;2023-02-26T11:10:22;2.40;;;1.77;;
4837;SDS011;2433;48.768;9.154;2023-02-26T11:12:50;1.48;;;1.38;;
4837;SDS011;2433;48.768;9.154;2023-02-26T11:15:18;2.80;;;1.77;;
4837;SDS011;2433;48.768;9.154;2023-02-26T11:17:47;2.30;;;2.10;;
4837;SDS011;2433;48.768;9.154;2023-02-26T11:20:16;3.22;;;2.30;;
4837;SDS011;2433;48.768;9.154;2023-02-26T11:22:44;2.50;;;1.80;;
4837;SDS011;2433;48.768;9.154;2023-02-26T11:25:13;4.78;;;1.35;;
4837;SDS011;2433;48.768;9.154;2023-02-26T11:27:43;1.30;;;1.15;;
4837;SDS011;2433;48.768;9.154;2023-02-26T11:30:17;2.03;;;1.60;;
4837;SDS011;2433;48.768;9.154;2023-02-26T11:32:45;2.78;;;2.03;;
4837;SDS011;2433;48.768;9.154;2023-02-26T11:35:15;1.42;;;1.33;;
4837;SDS011;2433;48.768;9.154;2023-02-26T11:37:45;2.25;;;1.45;;
4837;SDS011;2433;48.768;9.154;2023-02-26T11:40:15;4.43;;;1.67;;
4837;SDS011;2433;48.768;9.154;2023-02-26T11:42:54;1.55;;;1.45;;
4837;SDS011;2433;48.768;9.154;2023-02-26T11:45:23;1.15;;;1.05;;
4837;SDS011;2433;48.768;9.154;2023-02-26T11:47:57;2.70;;;1.90;;
4837;SDS011;2433;48.768;9.154;2023-02-26T11:50:26;2.85;;;2.40;;
4837;SDS011;2433;48.768;9.154;2023-02-26T11:52:54;3.90;;;2.03;;
4837;SDS011;2433;48.768;9.154;2023-02-26T11:55:26;2.20;;;1.90;;
4837;SDS011;2433;48.768;9.154;2023-02-26T11:57:55;1.65;;;1.55;;
4837;SDS011;2433;48.768;9.154;2023-02-26T12:00:32;2.20;;;2.00;;
4837;SDS011;2433;48.768;9.154;2023-02-26T12:03:03;2.20;;;1.52;;
4837;SDS011;2433;48.768;9.154;2023-02-26T12:05:32;3.00;;;1.00;;
4837;SDS011;2433;48.768;9.154;2023-02-26T12:07:58;1.40;;;1.30;;
4837;SDS011;2433;48.768;9.154;2023-02-26T12:10:29;1.47;;;1.37;;
4837;SDS011;2433;48.768;9.154;2023-02-26T12:13:23;2.55;;;1.63;;
4837;SDS011;2433;48.768;9.154;2023-02-26T12:16:12;1.40;;;1.25;;
4837;SDS011;2433;48.768;9.154;2023-02-26T12:18:49;1.52;;;1.42;;
4837;SDS011;2433;48.768;9.154;2023-02-26T12:27:19;1.50;;;1.40;;
4837;SDS011;2433;48.768;9.154;2023-02-26T12:43:59;1.67;;;1.35;;
4837;SDS011;2433;48.768;9.154;2023-02-26T12:49:13;0.93;;;0.93;;
4837;SDS011;2433;48.768;9.154;2023-02-26T12:54:49;1.55;;;1.40;;
4837;SDS011;2433;48.768;9.154;2023-02-26T13:00:26;1.70;;;1.60;;
4837;SDS011;2433;48.768;9.154;2023-02-26T13:22:44;2.65;;;1.17;;
4837;SDS011;2433;48.768;9.154;2023-02-26T13:27:31;1.50;;;1.40;;
4837;SDS011;2433;48.768;9.154;2023-02-26T13:32:42;0.80;;;0.63;;
4837;SDS011;2433;48.768;9.154;2023-02-26T13:35:18;1.40;;;1.10;;
4837;SDS011;2433;48.768;9.154;2023-02-26T13:44:41;0.90;;;0.80;;
4837;SDS011;2433;48.768;9.154;2023-02-26T13:47:30;0.88;;;0.88;;
4837;SDS011;2433;48.768;9.154;2023-02-26T13:52:55;1.20;;;1.10;;
4837;SDS011;2433;48.768;9.154;2023-02-26T13:55:45;1.05;;;0.80;;
4837;SDS011;2433;48.768;9.154;2023-02-26T14:00:45;1.17;;;1.13;;
4837;SDS011;2433;48.768;9.154;2023-02-26T14:10:52;1.38;;;1.27;;
4837;SDS011;2433;48.768;9.154;2023-02-26T14:13:29;1.20;;;1.10;;
4837;SDS011;2433;48.768;9.154;2023-02-26T14:16:08;0.77;;;0.60;;
4837;SDS011;2433;48.768;9.154;2023-02-26T14:18:41;1.13;;;0.85;;
4837;SDS011;2433;48.768;9.154;2023-02-26T14:24:10;1.00;;;0.90;;
4837;SDS011;2433;48.768;9.154;2023-02-26T14:26:41;1.35;;;1.20;;
4837;SDS011;2433;48.768;9.154;2023-02-26T14:31:46;0.85;;;0.65;;
4837;SDS011;2433;48.768;9.154;2023-02-26T14:34:22;0.73;;;0.73;;
4837;SDS011;2433;48.768;9.154;2023-02-26T14:36:51;1.35;;;0.88;;
4837;SDS011;2433;48.768;9.154;2023-02-26T14:42:01;1.42;;;1.20;;
4837;SDS011;2433;48.768;9.154;2023-02-26T14:44:37;0.77;;;0.70;;
4837;SDS011;2433;48.768;9.154;2023-02-26T14:47:05;2.55;;;0.80;;
4837;SDS011;2433;48.768;9.154;2023-02-26T14:49:33;1.42;;;0.95;;
4837;SDS011;2433;48.768;9.154;2023-02-26T14:52:22;0.68;;;0.63;;
4837;SDS011;2433;48.768;9.154;2023-02-26T14:57:27;0.50;;;0.45;;
4837;SDS011;2433;48.768;9.154;2023-02-26T15:00:09;1.42;;;0.88;;
4837;SDS011;2433;48.768;9.154;2023-02-26T15:08:14;1.40;;;0.80;;
4837;SDS011;2433;48.768;9.154;2023-02-26T15:27:53;1.25;;;0.98;;
4837;SDS011;2433;48.768;9.154;2023-02-26T15:30:19;1.20;;;1.10;;
4837;SDS011;2433;48.768;9.154;2023-02-26T15:32:45;1.02;;;0.80;;
4837;SDS011;2433;48.768;9.154;2023-02-26T15:35:30;1.10;;;0.80;;
4837;SDS011;2433;48.768;9.154;2023-02-26T15:38:18;1.80;;;0.88;;
4837;SDS011;2433;48.768;9.154;2023-02-26T15:41:03;1.95;;;1.40;;
4837;SDS011;2433;48.768;9.154;2023-02-26T15:43:49;1.20;;;1.10;;
4837;SDS011;2433;48.768;9.154;2023-02-26T15:46:39;1.10;;;1.00;;
4837;SDS011;2433;48.768;9.154;2023-02-26T15:49:27;0.98;;;0.80;;
4837;SDS011;2433;48.768;9.154;2023-02-26T15:52:21;1.60;;;0.80;;
4837;SDS011;2433;48.768;9.154;2023-02-26T15:55:12;2.05;;;1.55;;
4837;SDS011;2433;48.768;9.154;2023-02-26T15:57:57;0.80;;;0.80;;
4837;SDS011;2433;48.768;9.154;2023-02-26T16:00:50;1.50;;;0.90;;
4837;SDS011;2433;48.768;9.154;2023-02-26T16:03:39;1.27;;;0.80;;
4837;SDS011;2433;48.768;9.154;2023-02-26T16:06:27;1.95;;;1.33;;
4837;SDS011;2433;48.768;9.154;2023-02-26T16:09:15;1.00;;;0.77;;
4837;SDS011;2433;48.768;9.154;2023-02-26T16:11:52;1.00;;;0.80;;
4837;SDS011;2433;48.768;9.154;2023-02-26T16:14:26;1.27;;;1.17;;
4837;SDS011;2433;48.768;9.154;2023-02-26T16:17:03;1.60;;;0.98;;
4837;SDS011;2433;48.768;9.154;2023-02-26T16:19:40;0.95;;;0.93;;
4837;SDS011;2433;48.768;9.154;2023-02-26T16:24:42;0.75;;;0.70;;
4837;SDS011;2433;48.768;9.154;2023-02-26T16:27:12;0.40;;;0.40;;
4837;SDS011;2433;48.768;9.154;2023-02-26T16:29:42;2.28;;;1.08;;
4837;SDS011;2433;48.768;9.154;2023-02-26T16:32:12;1.55;;;1.00;;
4837;SDS011;2433;48.768;9.154;2023-02-26T16:37:09;1.08;;;0.98;;
4837;SDS011;2433;48.768;9.154;2023-02-26T16:40:18;1.63;;;0.90;;
4837;SDS011;2433;48.768;9.154;2023-02-26T16:47:45;0.73;;;0.73;;
4837;SDS011;2433;48.768;9.154;2023-02-26T16:50:33;1.48;;;0.70;;
4837;SDS011;2433;48.768;9.154;2023-02-26T16:53:21;0.80;;;0.65;;
4837;SDS011;2433;48.768;9.154;2023-02-26T16:55:48;1.00;;;0.85;;
4837;SDS011;2433;48.768;9.154;2023-02-26T16:58:18;1.23;;;0.80;;
4837;SDS011;2433;48.768;9.154;2023-02-26T17:00:45;1.45;;;0.63;;
4837;SDS011;2433;48.768;9.154;2023-02-26T17:03:18;2.97;;;0.90;;
4837;SDS011;2433;48.768;9.154;2023-02-26T17:05:56;1.40;;;0.60;;
4837;SDS011;2433;48.768;9.154;2023-02-26T17:08:52;0.60;;;0.52;;
4837;SDS011;2433;48.768;9.154;2023-02-26T17:11:21;4.07;;;0.80;;
4837;SDS011;2433;48.768;9.154;2023-02-26T17:14:13;3.25;;;0.65;;
4837;SDS011;2433;48.768;9.154;2023-02-26T17:16:44;1.45;;;0.80;;
4837;SDS011;2433;48.768;9.154;2023-02-26T17:19:10;1.50;;;1.20;;
4837;SDS011;2433;48.768;9.154;2023-02-26T17:21:40;0.90;;;0.77;;
4837;SDS011;2433;48.768;9.154;2023-02-26T17:24:16;0.70;;;0.50;;
4837;SDS011;2433;48.768;9.154;2023-02-26T17:26:49;0.90;;;0.90;;
4837;SDS011;2433;48.768;9.154;2023-02-26T17:29:23;0.70;;;0.70;;
4837;SDS011;2433;48.768;9.154;2023-02-26T17:31:52;1.35;;;0.75;;
4837;SDS011;2433;48.768;9.154;2023-02-26T17:34:18;2.00;;;1.00;;
4837;SDS011;2433;48.768;9.154;2023-02-26T17:36:45;0.85;;;0.52;;
4837;SDS011;2433;48.768;9.154;2023-02-26T17:39:12;1.13;;;0.80;;
4837;SDS011;2433;48.768;9.154;2023-02-26T17:41:41;1.40;;;0.95;;
4837;SDS011;2433;48.768;9.154;2023-02-26T17:44:10;0.50;;;0.50;;
4837;SDS011;2433;48.768;9.154;2023-02-26T17:46:36;0.95;;;0.80;;
4837;SDS011;2433;48.768;9.154;2023-02-26T17:49:01;1.37;;;1.00;;
4837;SDS011;2433;48.768;9.154;2023-02-26T17:51:27;1.33;;;0.80;;
4837;SDS011;2433;48.768;9.154;2023-02-26T17:53:53;1.77;;;1.63;;
4837;SDS011;2433;48.768;9.154;2023-02-26T17:59:00;2.30;;;0.90;;
4837;SDS011;2433;48.768;9.154;2023-02-26T18:01:28;1.73;;;1.25;;
4837;SDS011;2433;48.768;9.154;2023-02-26T18:03:54;1.60;;;1.00;;
4837;SDS011;2433;48.768;9.154;2023-02-26T18:06:20;0.70;;;0.70;;
4837;SDS011;2433;48.768;9.154;2023-02-26T18:08:46;2.05;;;0.70;;
4837;SDS011;2433;48.768;9.154;2023-02-26T18:11:13;2.13;;;1.15;;
4837;SDS011;2433;48.768;9.154;2023-02-26T18:13:40;1.42;;;0.70;;
4837;SDS011;2433;48.768;9.154;2023-02-26T18:16:06;1.67;;;0.90;;
4837;SDS011;2433;48.768;9.154;2023-02-26T18:18:37;1.30;;;0.60;;
4837;SDS011;2433;48.768;9.154;2023-02-26T18:21:03;1.13;;;0.70;;
4837;SDS011;2433;48.768;9.154;2023-02-26T18:23:29;0.95;;;0.95;;
4837;SDS011;2433;48.768;9.154;2023-02-26T18:25:55;1.23;;;0.70;;
4837;SDS011;2433;48.768;9.154;2023-02-26T18:28:25;0.60;;;0.50;;
4837;SDS011;2433;48.768;9.154;2023-02-26T18:30:51;2.25;;;1.25;;
4837;SDS011;2433;48.768;9.154;2023-02-26T18:33:19;1.45;;;0.88;;